Time;durP1;ratioP1;P1;durP2;ratioP2;P2;SDS_P1;SDS_P2;PMS_P1;PMS_P2;Temp;Humidity;BMP_temperature;BMP_pressure;BME280_temperature;BME280_humidity;BME280_pressure;Samples;Min_cycle;Max_cycle;Signal;HPM_P1;HPM_P2
2022/08/16 00:00:55;;;;;;;2.20;2.00;;;;;;;21.43;55.41;97480.88;5048742;28;20096;-89
2022/08/16 00:03:22;;;;;;;2.97;1.55;;;;;;;21.32;55.56;97486.31;5033615;28;20044;-85
2022/08/16 00:05:49;;;;;;;1.60;1.50;;;;;;;21.45;56.50;97492.06;5034322;28;20223;-86
2022/08/16 00:08:23;;;;;;;2.10;1.70;;;;;;;21.47;56.83;97490.72;5032754;28;20049;-88
2022/08/16 00:11:05;;;;;;;2.15;1.80;;;;;;;21.50;57.19;97482.13;5033595;28;20714;-88
2022/08/16 00:13:32;;;;;;;2.33;2.13;;;;;;;21.45;57.89;97487.50;5036506;28;20530;-87
2022/08/16 00:16:07;;;;;;;2.85;2.08;;;;;;;21.55;58.05;97495.41;5035429;28;20295;-88
2022/08/16 00:18:54;;;;;;;2.58;2.20;;;;;;;21.48;58.35;97488.84;5018858;28;20049;-87
2022/08/16 00:21:22;;;;;;;2.47;2.10;;;;;;;21.44;59.08;97483.25;5041203;28;20045;-87
2022/08/16 00:23:49;;;;;;;2.72;2.53;;;;;;;21.49;59.34;97491.22;5053837;28;20040;-88
2022/08/16 00:26:16;;;;;;;3.30;2.50;;;;;;;21.43;60.04;97491.56;5042421;28;20072;-86
2022/08/16 00:29:03;;;;;;;3.30;3.00;;;;;;;21.30;60.70;97482.38;5042947;28;20037;-87
2022/08/16 00:31:34;;;;;;;3.03;2.42;;;;;;;21.27;61.67;97494.34;5044761;28;20481;-88
2022/08/16 00:34:22;;;;;;;2.63;2.17;;;;;;;21.08;62.22;97478.28;5049992;28;20065;-87
2022/08/16 00:37:09;;;;;;;2.72;2.53;;;;;;;20.99;62.67;97477.31;5034429;28;20045;-88
2022/08/16 00:39:35;;;;;;;3.40;2.28;;;;;;;20.93;63.03;97491.78;5033339;28;20064;-85
2022/08/16 00:42:05;;;;;;;3.17;2.88;;;;;;;20.86;63.70;97501.94;5033816;28;20048;-85
2022/08/16 00:44:38;;;;;;;3.28;2.97;;;;;;;20.80;64.41;97505.72;5047325;28;20468;-88
2022/08/16 00:47:15;;;;;;;3.60;3.08;;;;;;;20.76;64.68;97512.69;5032425;28;20403;-87
2022/08/16 00:49:42;;;;;;;3.15;2.85;;;;;;;20.69;64.99;97504.22;5034098;28;20064;-88
2022/08/16 00:52:13;;;;;;;2.95;2.63;;;;;;;20.71;65.38;97510.06;5043404;28;20119;-90
2022/08/16 00:55:11;;;;;;;2.88;2.50;;;;;;;20.42;65.84;97483.34;5035850;28;20123;-86
2022/08/16 00:57:41;;;;;;;3.47;2.47;;;;;;;20.40;66.17;97488.97;5052580;28;20128;-88
2022/08/16 01:00:30;;;;;;;3.38;3.08;;;;;;;20.30;66.88;97495.16;5042123;28;20460;-87
2022/08/16 01:03:06;;;;;;;2.83;2.63;;;;;;;20.26;67.08;97507.41;5033087;28;20099;-88
2022/08/16 01:05:39;;;;;;;3.83;3.13;;;;;;;20.16;67.37;97501.38;5047003;28;20473;-88
2022/08/16 01:08:10;;;;;;;4.88;2.92;;;;;;;20.11;67.89;97506.72;5052037;28;20041;-89
2022/08/16 01:10:57;;;;;;;3.65;3.30;;;;;;;20.12;68.00;97503.78;5050408;28;20477;-86
2022/08/16 01:13:31;;;;;;;3.00;2.67;;;;;;;20.13;68.18;97501.91;5031446;28;20053;-87
2022/08/16 01:16:06;;;;;;;5.13;2.70;;;;;;;20.03;68.46;97503.59;5052523;28;20485;-87
2022/08/16 01:18:45;;;;;;;4.93;3.13;;;;;;;19.82;68.99;97510.06;5050439;28;20045;-89
2022/08/16 01:21:57;;;;;;;2.92;2.72;;;;;;;19.85;69.50;97506.03;5068069;28;20044;-86
2022/08/16 01:24:58;;;;;;;3.92;2.72;;;;;;;19.72;69.69;97507.44;5037926;28;20037;-89
2022/08/16 01:27:37;;;;;;;4.57;3.10;;;;;;;19.62;69.90;97512.81;5052604;28;20120;-88
2022/08/16 01:30:19;;;;;;;4.93;3.35;;;;;;;19.53;70.48;97510.66;5049655;28;20055;-87
2022/08/16 01:33:00;;;;;;;4.53;3.55;;;;;;;19.45;70.74;97516.56;5042833;28;20067;-87
2022/08/16 01:35:54;;;;;;;3.80;3.35;;;;;;;19.40;71.17;97516.56;5048638;28;20554;-88
2022/08/16 01:38:47;;;;;;;4.53;3.17;;;;;;;19.38;71.23;97502.75;5040793;28;20046;-86
2022/08/16 01:41:29;;;;;;;4.18;3.28;;;;;;;19.39;71.13;97519.50;5036393;28;20433;-89
2022/08/16 01:43:57;;;;;;;3.70;2.97;;;;;;;19.36;71.04;97512.84;5030445;28;20091;-88
2022/08/16 01:46:33;;;;;;;3.08;2.80;;;;;;;19.43;71.05;97521.38;5030976;28;20060;-87
2022/08/16 01:49:19;;;;;;;3.65;3.15;;;;;;;19.48;71.15;97518.66;5032791;28;20077;-89
2022/08/16 01:51:53;;;;;;;3.50;3.20;;;;;;;19.32;71.39;97514.47;5058761;28;20146;-85
2022/08/16 01:54:34;;;;;;;3.70;3.40;;;;;;;19.27;71.31;97527.78;5031343;28;20136;-90
2022/08/16 01:57:04;;;;;;;4.10;3.13;;;;;;;19.30;71.42;97521.91;5046509;28;20042;-87
2022/08/16 01:59:33;;;;;;;3.33;3.05;;;;;;;19.27;71.67;97525.13;5036033;28;20072;-86
2022/08/16 02:02:01;;;;;;;4.28;3.25;;;;;;;19.22;71.46;97514.50;5050359;28;20045;-91
2022/08/16 02:04:48;;;;;;;3.30;3.00;;;;;;;19.25;71.83;97521.91;5035186;28;20128;-88
2022/08/16 02:07:21;;;;;;;3.65;3.25;;;;;;;19.16;72.15;97521.69;5030548;28;20048;-86
2022/08/16 02:09:51;;;;;;;3.92;3.10;;;;;;;19.10;72.08;97513.97;5047519;28;20058;-86
2022/08/16 02:12:23;;;;;;;3.35;3.05;;;;;;;19.02;72.24;97507.34;5044940;28;20072;-87
2022/08/16 02:15:12;;;;;;;4.68;3.45;;;;;;;18.97;72.62;97517.97;5048045;28;20051;-89
2022/08/16 02:17:39;;;;;;;3.45;3.15;;;;;;;18.82;72.49;97517.97;5042209;28;20041;-87
2022/08/16 02:20:07;;;;;;;5.45;3.72;;;;;;;18.88;72.71;97520.38;5068354;28;20040;-90
2022/08/16 02:22:40;;;;;;;4.20;3.30;;;;;;;18.85;72.64;97520.13;5047649;28;20084;-88
2022/08/16 02:25:13;;;;;;;3.30;2.90;;;;;;;18.89;72.64;97518.50;5057082;28;20041;-88
2022/08/16 02:27:44;;;;;;;4.65;3.45;;;;;;;18.87;72.45;97518.78;5031302;28;20049;-89
2022/08/16 02:30:25;;;;;;;4.35;3.45;;;;;;;18.94;72.41;97518.50;5041722;28;20047;-86
2022/08/16 02:33:11;;;;;;;3.55;3.25;;;;;;;18.91;72.53;97524.38;5050529;28;20416;-87
2022/08/16 02:35:40;;;;;;;4.15;3.72;;;;;;;18.83;72.54;97533.69;5066519;28;20045;-89
2022/08/16 02:38:21;;;;;;;3.75;3.22;;;;;;;18.84;72.70;97529.97;5051959;28;20633;-90
2022/08/16 02:40:48;;;;;;;3.40;3.10;;;;;;;18.64;72.61;97512.09;5066804;28;20048;-88
2022/08/16 02:43:15;;;;;;;4.03;3.63;;;;;;;18.54;73.40;97519.28;5045293;28;20447;-86
2022/08/16 02:45:45;;;;;;;3.63;3.28;;;;;;;18.51;73.34;97519.81;5051225;28;20049;-88
2022/08/16 02:48:14;;;;;;;3.57;3.27;;;;;;;18.49;73.30;97527.25;5051472;28;20045;-91
2022/08/16 02:51:02;;;;;;;4.63;3.13;;;;;;;18.50;73.39;97524.31;5064932;28;20077;-86
2022/08/16 02:53:45;;;;;;;3.85;3.47;;;;;;;18.56;73.42;97533.88;5037156;28;20057;-88
2022/08/16 02:56:17;;;;;;;3.60;3.30;;;;;;;18.61;73.41;97525.13;5049810;28;20439;-85
2022/08/16 02:58:48;;;;;;;3.20;2.90;;;;;;;18.56;72.98;97527.78;5035980;28;20077;-88
2022/08/16 03:01:21;;;;;;;5.18;3.22;;;;;;;18.57;72.98;97519.53;5044945;28;20094;-87
2022/08/16 03:04:01;;;;;;;3.83;3.17;;;;;;;18.51;73.30;97509.19;5033850;28;20051;-88
2022/08/16 03:06:50;;;;;;;3.30;3.00;;;;;;;18.55;72.84;97520.88;5037523;28;20091;-86
2022/08/16 03:09:23;;;;;;;5.13;3.40;;;;;;;18.51;72.68;97519.81;5030331;28;20076;-89
2022/08/16 03:11:52;;;;;;;3.55;2.80;;;;;;;18.56;72.67;97522.47;5033997;28;20049;-88
2022/08/16 03:14:18;;;;;;;3.63;3.03;;;;;;;18.61;72.41;97527.78;5047332;28;20041;-90
2022/08/16 03:16:50;;;;;;;3.40;3.10;;;;;;;18.61;72.29;97531.25;5053724;28;20416;-91
2022/08/16 03:19:29;;;;;;;3.22;2.80;;;;;;;18.51;72.67;97520.59;5043219;28;20045;-89
2022/08/16 03:22:18;;;;;;;3.45;3.10;;;;;;;18.52;72.62;97518.75;5050330;28;20049;-88
2022/08/16 03:24:58;;;;;;;4.20;3.40;;;;;;;18.57;72.47;97524.06;5034542;28;20496;-88
2022/08/16 03:27:32;;;;;;;3.53;3.22;;;;;;;18.36;72.93;97515.28;5049053;28;20501;-90
2022/08/16 03:30:08;;;;;;;4.38;3.22;;;;;;;18.27;72.83;97509.69;5033439;28;20038;-90
2022/08/16 03:32:46;;;;;;;5.13;3.65;;;;;;;18.32;72.95;97517.66;5033261;28;20041;-88
2022/08/16 03:35:21;;;;;;;3.47;3.17;;;;;;;18.30;72.99;97514.47;5049400;28;20501;-88
2022/08/16 03:37:48;;;;;;;3.17;2.88;;;;;;;18.28;73.33;97505.16;5033813;28;20050;-89
2022/08/16 03:40:32;;;;;;;3.40;2.90;;;;;;;18.37;72.76;97517.69;5032845;28;20068;-87
2022/08/16 03:43:05;;;;;;;3.33;3.03;;;;;;;18.38;72.59;97516.59;5053585;28;20041;-88
2022/08/16 03:45:47;;;;;;;4.00;3.20;;;;;;;18.35;72.50;97516.31;5034561;28;20041;-88
2022/08/16 03:48:18;;;;;;;3.00;2.67;;;;;;;18.40;72.58;97527.75;5048578;28;20099;-88
2022/08/16 03:50:45;;;;;;;4.50;3.30;;;;;;;18.41;71.86;97523.25;5050198;28;20092;-88
2022/08/16 03:53:27;;;;;;;3.25;2.95;;;;;;;18.36;72.04;97524.06;5038320;28;20049;-88
2022/08/16 03:56:06;;;;;;;3.45;3.00;;;;;;;18.33;72.44;97519.25;5068319;28;20106;-87
2022/08/16 03:58:43;;;;;;;3.60;3.30;;;;;;;18.32;72.20;97508.91;5037348;28;20056;-88
2022/08/16 04:01:10;;;;;;;3.20;2.90;;;;;;;18.31;71.77;97505.47;5033563;28;20053;-89
2022/08/16 04:03:38;;;;;;;3.15;2.85;;;;;;;18.29;71.73;97518.22;5035660;28;20052;-88
2022/08/16 04:06:08;;;;;;;3.15;2.85;;;;;;;18.19;71.94;97518.19;5032801;28;20562;-87
2022/08/16 04:08:35;;;;;;;3.17;2.88;;;;;;;18.03;72.54;97519.97;5033791;28;20119;-88
2022/08/16 04:11:05;;;;;;;3.65;3.33;;;;;;;17.96;73.37;97526.59;5028256;28;20377;-88
2022/08/16 04:13:33;;;;;;;4.47;3.20;;;;;;;18.04;73.27;97526.09;5055662;28;20044;-91
2022/08/16 04:16:20;;;;;;;4.03;3.42;;;;;;;17.89;73.29;97525.00;5072531;28;20049;-88
2022/08/16 04:18:55;;;;;;;3.92;3.50;;;;;;;17.95;73.56;97535.63;5072385;28;20045;-91
2022/08/16 04:21:33;;;;;;;5.32;3.92;;;;;;;17.81;73.85;97527.34;5072364;28;20496;-87
2022/08/16 04:24:02;;;;;;;3.70;3.22;;;;;;;17.83;73.72;97527.88;5064639;28;20614;-89
2022/08/16 04:26:30;;;;;;;4.50;3.58;;;;;;;17.81;74.17;97543.25;5069135;28;20040;-85
2022/08/16 04:29:00;;;;;;;4.53;3.55;;;;;;;17.63;73.69;97536.50;5048227;28;20506;-87
2022/08/16 04:31:49;;;;;;;4.00;3.60;;;;;;;17.61;74.23;97544.72;5053427;28;20143;-87
2022/08/16 04:34:35;;;;;;;3.97;3.30;;;;;;;17.66;74.57;97554.56;5052917;28;20045;-86
2022/08/16 04:37:04;;;;;;;4.05;3.63;;;;;;;17.46;74.99;97554.47;5032264;28;20124;-88
2022/08/16 04:39:34;;;;;;;3.92;3.53;;;;;;;17.53;75.08;97561.13;5031843;28;20045;-88
2022/08/16 04:42:16;;;;;;;3.88;3.40;;;;;;;17.55;74.80;97556.38;5041789;28;20680;-88
2022/08/16 04:44:44;;;;;;;;;;;;;;;17.63;74.78;97566.50;5056666;28;20037;-89
2022/08/16 04:47:28;;;;;;;3.53;3.22;;;;;;;17.61;74.73;97565.94;5039630;28;19971;-88
2022/08/16 04:50:28;;;;;;;4.72;3.60;;;;;;;17.46;75.01;97551.81;5041632;28;20123;-92
2022/08/16 04:52:58;;;;;;;3.10;2.80;;;;;;;17.56;75.81;97570.41;5043470;28;20492;-87
2022/08/16 04:55:43;;;;;;;4.00;3.60;;;;;;;17.49;75.54;97565.34;5048966;28;20158;-90
2022/08/16 04:58:30;;;;;;;4.03;3.63;;;;;;;17.45;75.71;97563.44;5032238;28;20048;-87
2022/08/16 05:01:20;;;;;;;4.68;3.67;;;;;;;17.54;75.01;97564.59;5032079;28;20447;-89
2022/08/16 05:04:07;;;;;;;4.53;3.70;;;;;;;17.61;74.93;97575.75;5045801;28;20052;-88
2022/08/16 05:06:45;;;;;;;5.07;3.60;;;;;;;17.60;75.17;97566.19;5047131;28;20128;-87
2022/08/16 05:09:18;;;;;;;4.50;3.97;;;;;;;17.70;75.01;97570.78;5033033;28;20050;-89
2022/08/16 05:11:49;;;;;;;4.40;3.67;;;;;;;17.69;74.45;97561.19;5047492;28;20114;-87
2022/08/16 05:14:16;;;;;;;5.07;3.42;;;;;;;17.67;74.68;97553.50;5033276;28;20561;-88
2022/08/16 05:17:03;;;;;;;6.68;4.00;;;;;;;17.70;74.49;97553.00;5034026;28;20068;-88
2022/08/16 05:19:30;;;;;;;4.28;3.17;;;;;;;17.75;74.73;97550.41;5016959;28;20045;-88
2022/08/16 05:22:02;;;;;;;3.72;3.20;;;;;;;17.85;75.13;97557.59;5032548;28;20452;-87
2022/08/16 05:24:30;;;;;;;4.40;3.80;;;;;;;17.74;74.91;97564.69;5034459;28;20045;-87
2022/08/16 05:26:57;;;;;;;6.80;3.95;;;;;;;17.70;74.67;97544.25;5062461;28;20684;-86
2022/08/16 05:29:23;;;;;;;5.47;3.60;;;;;;;17.85;74.46;97566.34;5038150;28;20076;-90
2022/08/16 05:32:10;;;;;;;3.83;3.28;;;;;;;17.92;74.51;97571.41;5037446;28;20075;-87
2022/08/16 05:34:57;;;;;;;3.47;3.15;;;;;;;17.98;74.54;97570.38;5056970;28;20052;-90
2022/08/16 05:37:25;;;;;;;3.85;3.00;;;;;;;18.13;74.36;97580.25;5030946;28;20119;-91
2022/08/16 05:40:06;;;;;;;4.75;3.83;;;;;;;18.07;73.46;97576.00;5035403;28;20114;-87
2022/08/16 05:42:34;;;;;;;3.30;3.00;;;;;;;18.15;74.20;97559.56;5032229;28;20111;-88
2022/08/16 05:45:03;;;;;;;4.32;3.17;;;;;;;18.31;72.96;97579.78;5047355;28;20044;-87
2022/08/16 05:47:32;;;;;;;3.85;3.28;;;;;;;18.33;72.85;97572.34;5047474;28;20064;-87
2022/08/16 05:50:09;;;;;;;4.30;3.75;;;;;;;18.29;72.64;97579.25;5031295;28;20436;-89
2022/08/16 05:52:44;;;;;;;5.25;3.72;;;;;;;18.34;72.69;97575.78;5029111;28;20490;-88
2022/08/16 05:55:13;;;;;;;4.82;3.53;;;;;;;18.48;72.96;97579.56;5046026;28;20067;-86
2022/08/16 05:57:40;;;;;;;4.25;3.85;;;;;;;18.48;72.05;97570.81;5050066;28;20049;-88
2022/08/16 06:00:11;;;;;;;3.72;2.97;;;;;;;18.73;72.10;97576.16;5066645;28;20052;-88
2022/08/16 06:02:48;;;;;;;4.28;3.88;;;;;;;18.85;71.58;97578.56;5015912;28;20049;-90
2022/08/16 06:05:16;;;;;;;4.07;3.22;;;;;;;18.93;71.60;97565.53;5030933;28;20038;-88
2022/08/16 06:07:43;;;;;;;3.50;3.20;;;;;;;19.13;71.06;97577.22;5032481;28;20041;-87
2022/08/16 06:10:23;;;;;;;4.03;3.60;;;;;;;19.09;69.47;97560.22;5031248;28;20045;-87
2022/08/16 06:12:59;;;;;;;3.17;2.88;;;;;;;19.34;69.79;97586.78;5030431;28;20049;-87
2022/08/16 06:15:26;;;;;;;3.00;2.70;;;;;;;19.56;69.77;97588.34;5050086;28;20111;-86
2022/08/16 06:17:57;;;;;;;3.38;2.88;;;;;;;19.57;69.50;97572.13;5050691;28;20055;-87
2022/08/16 06:20:27;;;;;;;5.38;3.42;;;;;;;19.85;68.54;97581.38;5045071;28;20053;-86
2022/08/16 06:23:03;;;;;;;3.20;2.90;;;;;;;19.94;67.40;97582.41;5047960;28;20140;-85
2022/08/16 06:25:37;;;;;;;4.15;3.45;;;;;;;19.99;67.19;97577.06;5043952;28;20057;-86
2022/08/16 06:28:08;;;;;;;4.90;3.33;;;;;;;20.10;66.97;97583.13;5040016;28;20064;-88
2022/08/16 06:30:42;;;;;;;4.05;3.65;;;;;;;20.08;66.01;97576.47;5039168;28;20056;-87
2022/08/16 06:33:16;;;;;;;4.47;3.75;;;;;;;19.89;66.44;97593.06;5036953;28;20068;-86
2022/08/16 06:35:52;;;;;;;3.95;3.55;;;;;;;20.00;66.69;97583.97;5054307;28;20584;-86
2022/08/16 06:38:21;;;;;;;3.97;3.22;;;;;;;20.13;66.57;97592.44;5035976;28;20443;-87
2022/08/16 06:41:04;;;;;;;4.30;3.20;;;;;;;20.29;66.38;97592.09;5047579;28;20047;-87
2022/08/16 06:43:33;;;;;;;4.38;3.80;;;;;;;20.36;65.43;97605.09;5065248;28;20052;-85
2022/08/16 06:46:05;;;;;;;5.00;3.47;;;;;;;20.47;66.48;97590.69;5033104;28;20108;-86
2022/08/16 06:48:36;;;;;;;5.38;4.22;;;;;;;20.51;65.35;97590.91;5040918;28;20124;-88
2022/08/16 06:51:08;;;;;;;4.88;4.07;;;;;;;20.55;63.81;97598.09;5030443;28;20046;-88
2022/08/16 06:53:35;;;;;;;6.88;4.07;;;;;;;20.56;64.73;97591.69;5033394;28;20076;-89
2022/08/16 06:56:06;;;;;;;4.35;3.47;;;;;;;20.85;64.35;97602.44;5030750;28;20052;-87
2022/08/16 06:58:51;;;;;;;4.47;4.07;;;;;;;20.94;64.02;97594.66;5050111;28;20095;-87
2022/08/16 07:01:20;;;;;;;4.40;4.00;;;;;;;21.20;63.40;97610.44;5066804;28;20063;-88
2022/08/16 07:04:08;;;;;;;4.78;3.67;;;;;;;21.31;62.26;97602.09;5061284;28;20076;-87
2022/08/16 07:06:40;;;;;;;4.40;4.00;;;;;;;21.38;63.37;97601.75;5041320;28;20127;-86
2022/08/16 07:09:13;;;;;;;5.10;4.25;;;;;;;21.43;62.69;97599.06;5049472;28;20971;-86
2022/08/16 07:11:43;;;;;;;5.25;3.90;;;;;;;21.70;62.49;97617.19;5049390;28;20111;-87
2022/08/16 07:14:17;;;;;;;4.38;3.97;;;;;;;21.75;61.42;97621.66;5036910;28;20103;-87
2022/08/16 07:16:56;;;;;;;4.32;3.75;;;;;;;21.91;61.82;97599.88;5042170;28;20051;-87
2022/08/16 07:19:31;;;;;;;3.85;3.55;;;;;;;22.13;60.32;97607.41;5065843;28;20033;-87
2022/08/16 07:22:18;;;;;;;3.50;3.20;;;;;;;22.33;60.85;97616.22;5037267;28;20137;-88
2022/08/16 07:25:12;;;;;;;4.53;3.95;;;;;;;22.28;58.75;97624.31;5048573;28;20052;-87
2022/08/16 07:27:40;;;;;;;3.75;3.45;;;;;;;22.17;58.40;97615.63;5042622;28;20047;-86
2022/08/16 07:30:13;;;;;;;6.63;3.45;;;;;;;22.16;59.88;97608.69;5038227;28;20037;-88
2022/08/16 07:33:01;;;;;;;4.00;3.30;;;;;;;22.38;59.59;97605.47;5057416;28;20049;-88
2022/08/16 07:35:28;;;;;;;4.25;3.70;;;;;;;22.55;58.42;97602.28;5044355;28;20037;-87
2022/08/16 07:37:55;;;;;;;3.92;3.53;;;;;;;22.56;58.37;97596.66;5036571;28;20049;-86
2022/08/16 07:40:24;;;;;;;5.32;3.53;;;;;;;22.60;58.31;97604.88;5035597;28;20041;-88
2022/08/16 07:43:10;;;;;;;4.07;3.08;;;;;;;22.73;57.25;97611.38;5037063;28;20140;-85
2022/08/16 07:45:37;;;;;;;4.65;3.58;;;;;;;22.79;57.83;97605.69;5049603;28;20128;-88
2022/08/16 07:48:08;;;;;;;3.75;3.45;;;;;;;22.87;56.46;97598.91;5045141;28;20481;-87
2022/08/16 07:50:39;;;;;;;3.78;3.42;;;;;;;22.85;57.69;97599.19;5043844;28;20099;-86
2022/08/16 07:53:23;;;;;;;5.35;3.78;;;;;;;23.13;56.62;97616.13;5046932;28;20068;-87
2022/08/16 07:55:55;;;;;;;3.83;2.83;;;;;;;23.34;56.89;97613.94;5045832;28;20056;-87
2022/08/16 07:58:22;;;;;;;3.70;3.40;;;;;;;23.48;56.17;97621.97;5052979;28;20420;-87
2022/08/16 08:01:04;;;;;;;4.72;3.85;;;;;;;23.39;55.16;97611.19;5052065;28;20044;-89
2022/08/16 08:03:42;;;;;;;3.90;3.50;;;;;;;23.29;55.76;97622.03;5047164;28;20045;-85
2022/08/16 08:06:21;;;;;;;3.55;3.25;;;;;;;23.49;55.85;97610.19;5048312;28;20037;-87
2022/08/16 08:08:51;;;;;;;3.20;2.90;;;;;;;23.67;55.64;97614.69;5054247;28;20053;-84
2022/08/16 08:11:27;;;;;;;2.90;2.70;;;;;;;23.85;56.42;97609.56;5045583;28;20461;-88
2022/08/16 08:13:58;;;;;;;4.47;3.47;;;;;;;24.00;54.62;97618.09;5069212;28;20111;-86
2022/08/16 08:16:32;;;;;;;2.95;2.75;;;;;;;24.13;53.98;97608.47;5052758;28;20067;-86
2022/08/16 08:19:00;;;;;;;2.92;2.70;;;;;;;24.30;53.95;97613.22;5053707;28;20045;-90
2022/08/16 08:21:31;;;;;;;2.95;2.65;;;;;;;24.54;53.75;97603.06;5033621;28;20068;-86
2022/08/16 08:24:20;;;;;;;6.93;2.70;;;;;;;24.62;53.75;97609.59;5046234;28;20194;-88
2022/08/16 08:26:47;;;;;;;3.63;3.00;;;;;;;24.78;52.13;97607.38;5049439;28;20382;-87
2022/08/16 08:29:17;;;;;;;3.20;2.90;;;;;;;24.87;51.69;97618.16;5068875;28;20052;-87
2022/08/16 08:31:52;;;;;;;3.00;2.70;;;;;;;25.02;53.66;97613.22;5053072;28;20630;-88
2022/08/16 08:34:20;;;;;;;2.85;2.60;;;;;;;25.12;52.21;97603.38;5068796;28;20083;-87
2022/08/16 08:36:49;;;;;;;3.40;3.10;;;;;;;25.27;50.00;97611.84;5053394;28;20049;-89
2022/08/16 08:39:21;;;;;;;3.70;3.40;;;;;;;25.26;50.37;97606.78;5036784;28;20040;-89
2022/08/16 08:41:48;;;;;;;3.03;2.80;;;;;;;25.35;49.50;97618.34;5032472;28;20140;-87
2022/08/16 08:44:19;;;;;;;4.70;3.47;;;;;;;25.17;49.45;97628.19;5050636;28;20124;-89
2022/08/16 08:47:06;;;;;;;3.30;3.00;;;;;;;24.95;49.53;97606.69;5062282;28;20473;-88
2022/08/16 08:49:37;;;;;;;;;;;;;;;25.23;51.59;97629.66;5033255;28;20077;-86
2022/08/16 08:52:13;;;;;;;3.42;2.88;;;;;;;25.29;48.90;97622.25;5027363;28;19921;-89
2022/08/16 08:55:12;;;;;;;5.45;3.50;;;;;;;25.21;48.95;97626.47;5051793;28;20049;-87
2022/08/16 08:57:45;;;;;;;3.80;3.40;;;;;;;25.13;48.96;97629.09;5050167;28;20037;-87
2022/08/16 09:00:17;;;;;;;3.17;2.90;;;;;;;25.11;50.71;97621.34;5030994;28;20565;-88
2022/08/16 09:02:52;;;;;;;2.97;2.78;;;;;;;25.45;50.83;97625.38;5037255;28;20076;-88
2022/08/16 09:05:27;;;;;;;3.30;3.00;;;;;;;25.56;48.27;97621.31;5031355;28;20045;-87
2022/08/16 09:08:03;;;;;;;3.65;3.28;;;;;;;25.42;48.25;97621.38;5030277;28;20045;-87
2022/08/16 09:10:32;;;;;;;3.67;3.25;;;;;;;25.57;48.10;97633.66;5067977;28;20196;-88
2022/08/16 09:13:05;;;;;;;3.35;3.10;;;;;;;25.72;47.44;97632.44;5067297;28;20041;-87
2022/08/16 09:15:36;;;;;;;3.42;3.05;;;;;;;25.82;47.50;97616.88;5038746;28;20037;-86
2022/08/16 09:18:04;;;;;;;3.05;2.85;;;;;;;25.87;46.19;97616.75;5032539;28;20452;-90
2022/08/16 09:20:52;;;;;;;4.20;3.50;;;;;;;25.89;47.30;97627.97;5031589;28;20076;-88
2022/08/16 09:23:30;;;;;;;3.70;3.40;;;;;;;25.77;46.03;97622.38;5032253;28;20099;-90
2022/08/16 09:26:09;;;;;;;3.78;3.35;;;;;;;26.02;46.75;97633.53;5038841;28;20045;-88
2022/08/16 09:28:56;;;;;;;3.95;3.65;;;;;;;25.65;46.24;97624.81;5051463;28;20139;-85
2022/08/16 09:31:43;;;;;;;3.13;2.90;;;;;;;25.35;47.06;97608.41;5047984;28;20128;-87
2022/08/16 09:34:10;;;;;;;3.58;3.28;;;;;;;25.61;48.35;97618.50;5031010;28;20451;-87
2022/08/16 09:36:44;;;;;;;3.50;3.20;;;;;;;25.60;47.37;97608.84;5047391;28;20045;-89
2022/08/16 09:39:13;;;;;;;4.18;3.88;;;;;;;25.55;47.72;97619.72;5015947;28;20041;-87
2022/08/16 09:41:42;;;;;;;4.72;3.30;;;;;;;25.51;48.03;97613.41;5037334;28;20049;-87
2022/08/16 09:44:23;;;;;;;4.15;3.85;;;;;;;25.65;47.09;97615.97;5048028;28;20484;-87
2022/08/16 09:47:10;;;;;;;5.80;3.95;;;;;;;25.54;47.38;97620.81;5047146;28;20356;-83
2022/08/16 09:49:37;;;;;;;3.80;3.50;;;;;;;25.38;46.73;97617.75;5064616;28;20048;-86
2022/08/16 09:52:07;;;;;;;3.60;3.30;;;;;;;25.36;47.27;97618.03;5075047;28;20045;-88
2022/08/16 09:54:54;;;;;;;3.80;3.50;;;;;;;25.71;46.67;97617.44;5031160;28;20111;-88
2022/08/16 09:57:21;;;;;;;4.43;4.03;;;;;;;25.93;46.12;97609.34;5050507;28;20144;-83
2022/08/16 09:59:48;;;;;;;4.60;3.95;;;;;;;26.08;46.82;97610.78;5046539;28;20048;-89
2022/08/16 10:02:24;;;;;;;5.00;3.60;;;;;;;25.84;45.83;97606.59;5046416;28;20053;-88
2022/08/16 10:04:57;;;;;;;4.22;3.58;;;;;;;25.80;46.90;97604.88;5042870;28;20091;-88
2022/08/16 10:07:28;;;;;;;3.70;3.30;;;;;;;25.56;46.27;97610.59;5036451;28;20046;-85
2022/08/16 10:10:10;;;;;;;3.55;3.28;;;;;;;25.53;46.75;97608.50;5016270;28;20045;-85
2022/08/16 10:15:27;;;;;;;3.47;3.17;;;;;;;25.51;48.67;97608.03;5051043;28;20045;-87
2022/08/16 10:17:56;;;;;;;3.70;3.05;;;;;;;25.50;47.64;97601.06;5038011;28;20053;-89
2022/08/16 10:20:32;;;;;;;4.25;3.20;;;;;;;25.60;47.91;97611.53;5030369;28;20045;-89
2022/08/16 10:23:04;;;;;;;4.30;3.58;;;;;;;25.43;47.34;97606.06;5030090;28;20401;-87
2022/08/16 10:25:38;;;;;;;3.80;3.50;;;;;;;25.53;48.53;97611.97;5030694;28;20045;-89
2022/08/16 10:28:29;;;;;;;3.60;3.30;;;;;;;25.59;48.80;97604.59;5037297;28;20040;-88
2022/08/16 10:31:08;;;;;;;4.30;4.00;;;;;;;25.41;47.32;97603.69;5049369;28;20083;-92
2022/08/16 10:33:40;;;;;;;4.88;3.95;;;;;;;25.21;48.05;97594.28;5051024;28;20136;-88
2022/08/16 10:36:08;;;;;;;3.92;3.58;;;;;;;25.35;49.12;97608.41;5040762;28;20069;-90
2022/08/16 10:38:39;;;;;;;5.43;4.20;;;;;;;25.36;47.73;97612.66;5030593;28;20453;-86
2022/08/16 10:41:10;;;;;;;3.83;3.25;;;;;;;25.45;49.57;97606.56;5031048;28;20083;-89
2022/08/16 10:43:42;;;;;;;3.95;3.65;;;;;;;25.69;47.18;97598.94;5047057;28;20041;-87
2022/08/16 10:46:13;;;;;;;4.28;3.97;;;;;;;25.70;45.87;97607.78;5033255;28;20069;-89
2022/08/16 10:49:00;;;;;;;3.67;3.35;;;;;;;25.79;45.99;97606.78;5029516;28;20045;-87
2022/08/16 10:51:31;;;;;;;4.07;3.70;;;;;;;25.81;46.28;97607.25;5032713;28;20041;-88
2022/08/16 10:54:01;;;;;;;3.72;3.42;;;;;;;25.78;46.23;97613.22;5031636;28;20080;-87
2022/08/16 10:56:31;;;;;;;;;;;;;;;25.96;47.87;97615.97;5030368;28;20046;-86
2022/08/16 10:59:19;;;;;;;4.22;3.58;;;;;;;26.08;46.37;97608.09;5031817;28;20023;-90
2022/08/16 11:02:09;;;;;;;4.32;3.92;;;;;;;25.87;45.69;97607.91;5037242;28;20072;-88
2022/08/16 11:04:56;;;;;;;3.30;3.10;;;;;;;25.98;47.04;97614.56;5048832;28;20045;-87
2022/08/16 11:07:33;;;;;;;3.13;2.92;;;;;;;26.07;46.28;97615.38;5051406;28;20041;-86
2022/08/16 11:10:34;;;;;;;3.70;3.40;;;;;;;25.99;45.45;97608.09;5037515;28;20050;-86
2022/08/16 11:13:24;;;;;;;3.38;3.05;;;;;;;26.20;46.07;97613.66;5029543;28;20140;-87
2022/08/16 11:16:11;;;;;;;3.75;3.10;;;;;;;26.33;46.28;97606.56;5041373;28;20068;-87
2022/08/16 11:18:58;;;;;;;3.10;2.85;;;;;;;26.51;45.92;97607.41;5042854;28;20071;-88
2022/08/16 11:21:38;;;;;;;3.22;2.90;;;;;;;26.58;44.08;97613.16;5041706;28;20045;-85
2022/08/16 11:24:26;;;;;;;3.70;3.40;;;;;;;26.63;44.44;97603.03;5040953;28;20103;-86
2022/08/16 11:27:19;;;;;;;3.47;3.00;;;;;;;26.77;43.36;97610.94;5038279;28;20133;-88
2022/08/16 11:29:54;;;;;;;3.78;3.47;;;;;;;26.88;44.07;97609.50;5030910;28;20720;-88
2022/08/16 11:32:24;;;;;;;3.97;3.60;;;;;;;26.98;42.73;97610.28;5032894;28;20424;-88
2022/08/16 11:34:58;;;;;;;3.03;2.83;;;;;;;27.13;43.75;97607.13;5042851;28;20049;-88
2022/08/16 11:37:49;;;;;;;3.10;2.85;;;;;;;27.14;42.07;97603.34;5034289;28;20053;-86
2022/08/16 11:40:45;;;;;;;2.80;2.60;;;;;;;27.24;45.70;97592.25;5035891;28;20049;-86
2022/08/16 11:43:36;;;;;;;3.55;3.05;;;;;;;27.27;43.88;97594.28;5069462;28;20106;-86
2022/08/16 11:46:11;;;;;;;3.30;3.10;;;;;;;27.29;43.01;97592.06;5068762;28;20099;-86
2022/08/16 11:48:58;;;;;;;3.17;2.97;;;;;;;27.24;42.88;97588.75;5043474;28;20572;-85
2022/08/16 11:51:24;;;;;;;3.72;3.42;;;;;;;27.21;41.92;97576.72;5051447;28;20048;-87
2022/08/16 11:53:52;;;;;;;3.30;3.10;;;;;;;27.53;41.91;97588.00;5051861;28;20509;-85
2022/08/16 11:56:19;;;;;;;3.00;2.80;;;;;;;27.79;45.44;97591.44;5035578;28;20399;-86
2022/08/16 11:59:07;;;;;;;3.30;3.00;;;;;;;27.77;40.95;97592.88;5033866;28;20575;-88
2022/08/16 12:01:33;;;;;;;4.15;3.85;;;;;;;27.63;40.67;97588.47;5045315;28;20048;-89
2022/08/16 12:04:20;;;;;;;2.97;2.78;;;;;;;27.66;41.73;97584.34;5039351;28;20555;-90
2022/08/16 12:06:49;;;;;;;3.70;3.40;;;;;;;27.56;40.24;97587.38;5068785;28;20419;-86
2022/08/16 12:09:19;;;;;;;3.00;2.80;;;;;;;27.55;41.00;97583.13;5049658;28;20081;-89
2022/08/16 12:11:47;;;;;;;2.80;2.60;;;;;;;27.73;41.12;97592.75;5049432;28;20049;-86
2022/08/16 12:14:19;;;;;;;3.05;2.85;;;;;;;27.80;41.28;97590.31;5048739;28;20095;-87
2022/08/16 12:16:53;;;;;;;3.00;2.80;;;;;;;27.89;41.06;97593.78;5029125;28;20091;-87